createdAt,value
2022-10-13T00:00:42.654Z,79.80
2022-10-13T00:03:10.819Z,79.80
2022-10-13T00:05:42.767Z,79.80
2022-10-13T00:08:09.880Z,79.80
2022-10-13T00:10:38.619Z,79.90
2022-10-13T00:13:06.003Z,79.90
2022-10-13T00:15:32.870Z,79.90
2022-10-13T00:17:59.763Z,79.90
2022-10-13T00:20:26.571Z,80.30
2022-10-13T00:22:53.301Z,79.80
2022-10-13T00:25:20.084Z,79.90
2022-10-13T00:27:46.945Z,79.90
2022-10-13T00:30:13.771Z,79.90
2022-10-13T00:32:40.582Z,79.90
2022-10-13T00:35:07.611Z,80.00
2022-10-13T00:37:34.403Z,80.00
2022-10-13T00:40:01.147Z,79.90
2022-10-13T00:42:28.044Z,80.00
2022-10-13T00:45:19.699Z,80.00
2022-10-13T00:47:51.605Z,80.00
2022-10-13T00:50:23.551Z,80.00
2022-10-13T00:52:54.395Z,80.00
2022-10-13T00:55:25.227Z,80.00
2022-10-13T00:57:55.810Z,80.00
2022-10-13T01:00:23.812Z,80.00
2022-10-13T01:02:50.952Z,80.10
2022-10-13T01:05:19.466Z,80.10
2022-10-13T01:07:49.086Z,80.10
2022-10-13T01:10:24.776Z,80.10
2022-10-13T01:13:22.471Z,80.00
2022-10-13T01:16:06.140Z,80.10
2022-10-13T01:18:46.464Z,80.10
2022-10-13T01:21:26.408Z,80.20
2022-10-13T01:24:14.728Z,80.20
2022-10-13T01:27:18.756Z,80.20
2022-10-13T01:30:06.955Z,80.20
2022-10-13T01:32:43.941Z,80.20
2022-10-13T01:35:13.299Z,80.20
2022-10-13T01:37:46.037Z,80.30
2022-10-13T01:40:16.879Z,80.30
2022-10-13T01:42:51.118Z,80.30
2022-10-13T01:45:21.978Z,80.30
2022-10-13T01:47:52.728Z,80.30
2022-10-13T01:50:20.641Z,80.40
2022-10-13T01:52:48.207Z,80.40
2022-10-13T01:55:15.145Z,80.30
2022-10-13T01:57:45.040Z,80.40
2022-10-13T02:00:18.078Z,80.30
2022-10-13T02:02:57.266Z,80.40
2022-10-13T02:05:54.948Z,80.40
2022-10-13T02:08:34.119Z,80.40
2022-10-13T02:11:14.485Z,80.40
2022-10-13T02:13:54.315Z,80.40
2022-10-13T02:16:23.609Z,80.40
2022-10-13T02:18:51.233Z,80.40
2022-10-13T02:21:18.536Z,80.40
2022-10-13T02:23:45.876Z,80.50
2022-10-13T02:26:14.083Z,80.50
2022-10-13T02:28:41.027Z,80.60
2022-10-13T02:31:10.892Z,80.50
2022-10-13T02:33:37.614Z,80.50
2022-10-13T02:36:05.222Z,80.50
2022-10-13T02:38:31.969Z,80.60
2022-10-13T02:41:00.231Z,80.50
2022-10-13T02:43:29.398Z,80.60
2022-10-13T02:45:56.152Z,80.60
2022-10-13T02:48:23.235Z,80.60
2022-10-13T02:50:49.947Z,80.60
2022-10-13T02:53:16.697Z,80.60
2022-10-13T02:55:43.439Z,80.60
2022-10-13T02:58:10.160Z,80.60
2022-10-13T03:00:39.175Z,80.50
2022-10-13T03:03:06.618Z,80.60
2022-10-13T03:05:33.421Z,80.60
2022-10-13T03:08:00.117Z,80.60
2022-10-13T03:10:27.106Z,80.60
2022-10-13T03:12:55.645Z,80.70
2022-10-13T03:15:22.542Z,80.60
2022-10-13T03:17:49.376Z,80.70
2022-10-13T03:20:16.298Z,80.60
2022-10-13T03:22:46.075Z,80.60
2022-10-13T03:25:16.337Z,80.70
2022-10-13T03:27:43.049Z,80.60
2022-10-13T03:30:10.624Z,80.70
2022-10-13T03:32:37.433Z,80.70
2022-10-13T03:35:05.799Z,80.60
2022-10-13T03:37:32.523Z,80.70
2022-10-13T03:39:59.977Z,80.80
2022-10-13T03:42:26.739Z,80.70
2022-10-13T03:44:56.331Z,80.70
2022-10-13T03:47:23.766Z,80.70
2022-10-13T03:49:50.462Z,80.70
2022-10-13T03:52:17.498Z,80.70
2022-10-13T03:54:44.467Z,80.70
2022-10-13T03:57:11.192Z,80.70
2022-10-13T03:59:40.644Z,80.80
2022-10-13T04:02:07.763Z,80.80
2022-10-13T04:04:35.289Z,80.70
2022-10-13T04:07:02.135Z,80.70
2022-10-13T04:09:28.961Z,80.80
2022-10-13T04:11:55.682Z,80.80
2022-10-13T04:14:22.463Z,80.80
2022-10-13T04:16:49.176Z,80.80
2022-10-13T04:19:16.120Z,80.80
2022-10-13T04:21:43.813Z,80.90
2022-10-13T04:24:13.221Z,80.80
2022-10-13T04:26:40.537Z,80.90
2022-10-13T04:29:09.629Z,80.90
2022-10-13T04:31:37.048Z,80.80
2022-10-13T04:34:04.113Z,80.90
2022-10-13T04:36:30.900Z,80.90
2022-10-13T04:38:57.724Z,80.90
2022-10-13T04:41:25.826Z,80.90
2022-10-13T04:43:53.564Z,80.90
2022-10-13T04:46:23.302Z,80.90
2022-10-13T04:48:53.157Z,81.00
2022-10-13T04:51:23.330Z,80.90
2022-10-13T04:53:58.105Z,80.90
2022-10-13T04:56:25.849Z,80.90
2022-10-13T04:58:52.713Z,80.90
2022-10-13T05:01:22.641Z,81.00
2022-10-13T05:03:54.196Z,81.00
2022-10-13T05:06:24.033Z,81.00
2022-10-13T05:08:51.134Z,79.40
2022-10-13T05:11:20.453Z,79.30
2022-10-13T05:13:48.487Z,79.00
2022-10-13T05:16:17.611Z,80.60
2022-10-13T05:18:44.628Z,80.90
2022-10-13T05:21:14.300Z,81.10
2022-10-13T05:23:41.880Z,81.20
2022-10-13T05:26:11.738Z,81.80
2022-10-13T05:28:38.926Z,82.20
2022-10-13T05:31:25.109Z,82.70
2022-10-13T05:33:52.504Z,82.40
2022-10-13T05:36:24.137Z,82.50
2022-10-13T05:38:52.674Z,82.60
2022-10-13T05:41:20.309Z,83.10
2022-10-13T05:43:47.060Z,83.30
2022-10-13T05:46:14.362Z,83.20
2022-10-13T05:48:41.096Z,83.10
2022-10-13T05:51:21.177Z,83.40
2022-10-13T05:53:56.904Z,83.70
2022-10-13T05:56:30.056Z,84.10
2022-10-13T05:59:01.586Z,83.70
2022-10-13T06:01:32.775Z,83.80
2022-10-13T06:04:04.325Z,83.70
2022-10-13T06:06:31.800Z,83.70
2022-10-13T06:09:00.356Z,83.50
2022-10-13T06:11:30.065Z,83.80
2022-10-13T06:13:56.808Z,83.90
2022-10-13T06:16:23.534Z,84.20
2022-10-13T06:18:50.272Z,84.20
2022-10-13T06:21:17.388Z,84.10
2022-10-13T06:23:44.106Z,84.30
2022-10-13T06:26:10.857Z,84.40
2022-10-13T06:28:38.158Z,84.20
2022-10-13T06:31:07.168Z,84.50
2022-10-13T06:33:34.389Z,85.50
2022-10-13T06:36:05.982Z,85.10
2022-10-13T06:38:33.286Z,85.00
2022-10-13T06:41:04.922Z,85.60
2022-10-13T06:43:38.885Z,85.00
2022-10-13T06:46:07.415Z,85.40
2022-10-13T06:48:34.409Z,85.20
2022-10-13T06:51:02.943Z,85.20
2022-10-13T06:53:30.198Z,85.40
2022-10-13T06:55:59.126Z,85.90
2022-10-13T06:58:26.939Z,86.10
2022-10-13T07:00:54.429Z,86.20
2022-10-13T07:03:21.191Z,86.20
2022-10-13T07:05:48.036Z,86.50
2022-10-13T07:08:15.718Z,86.70
2022-10-13T07:10:42.905Z,86.70
2022-10-13T07:13:09.792Z,87.20
2022-10-13T07:15:40.552Z,86.80
2022-10-13T07:18:07.756Z,86.70
2022-10-13T07:20:34.975Z,86.20
2022-10-13T07:23:02.364Z,85.80
2022-10-13T07:25:29.447Z,85.90
2022-10-13T07:27:56.635Z,85.90
2022-10-13T07:30:23.339Z,86.00
2022-10-13T07:32:50.481Z,86.70
2022-10-13T07:35:17.327Z,86.80
2022-10-13T07:37:44.086Z,86.90
2022-10-13T07:40:11.329Z,87.00
2022-10-13T07:42:38.082Z,87.60
2022-10-13T07:45:05.339Z,88.00
2022-10-13T07:47:32.053Z,88.10
2022-10-13T07:49:58.758Z,88.10
2022-10-13T07:52:25.529Z,88.10
2022-10-13T07:54:52.735Z,88.00
2022-10-13T07:57:20.180Z,88.30
2022-10-13T07:59:46.971Z,87.90
2022-10-13T08:02:14.461Z,88.00
2022-10-13T08:04:44.091Z,88.00
2022-10-13T08:07:11.550Z,88.70
2022-10-13T08:09:38.337Z,88.70
2022-10-13T08:12:05.132Z,88.40
2022-10-13T08:14:31.966Z,88.10
2022-10-13T08:16:58.843Z,88.20
2022-10-13T08:19:26.592Z,88.10
2022-10-13T08:21:59.199Z,88.30
2022-10-13T08:24:27.695Z,88.70
2022-10-13T08:26:54.655Z,88.90
2022-10-13T08:29:22.957Z,88.90
2022-10-13T08:31:52.755Z,88.60
2022-10-13T08:34:20.269Z,88.50
2022-10-13T08:36:47.438Z,88.40
2022-10-13T08:39:14.359Z,88.50
2022-10-13T08:41:44.033Z,88.10
2022-10-13T08:47:30.348Z,88.60
2022-10-13T08:50:01.123Z,88.80
2022-10-13T08:52:43.444Z,89.40
2022-10-13T08:55:33.122Z,89.50
2022-10-13T08:58:01.864Z,89.20
2022-10-13T09:00:30.382Z,89.00
2022-10-13T09:03:15.753Z,89.10
2022-10-13T09:05:53.287Z,88.70
2022-10-13T09:08:25.138Z,88.90
2022-10-13T09:10:52.162Z,88.60
2022-10-13T09:13:20.343Z,88.50
2022-10-13T09:15:48.466Z,88.60
2022-10-13T09:18:15.232Z,88.30
2022-10-13T09:20:44.797Z,88.60
2022-10-13T09:23:14.355Z,89.10
2022-10-13T09:25:46.552Z,89.90
2022-10-13T09:28:32.562Z,89.60
2022-10-13T09:31:11.640Z,89.30
2022-10-13T09:33:40.891Z,89.50
2022-10-13T09:36:11.194Z,89.90
2022-10-13T09:38:39.698Z,90.20
2022-10-13T09:41:21.782Z,90.50
2022-10-13T09:43:48.472Z,90.20
2022-10-13T09:46:20.520Z,90.40
2022-10-13T09:49:03.881Z,90.30
2022-10-13T09:51:44.859Z,90.30
2022-10-13T09:54:36.957Z,90.40
2022-10-13T09:57:09.120Z,90.80
2022-10-13T09:59:41.144Z,91.00
2022-10-13T10:02:34.654Z,90.70
2022-10-13T10:05:18.485Z,90.60
2022-10-13T10:07:45.799Z,90.80
2022-10-13T10:10:37.076Z,90.70
2022-10-13T10:13:06.454Z,90.70
2022-10-13T10:16:05.008Z,90.30
2022-10-13T10:18:47.320Z,90.50
2022-10-13T10:21:34.557Z,90.60
2022-10-13T10:24:24.345Z,90.70
2022-10-13T10:27:14.793Z,90.90
2022-10-13T10:29:49.023Z,90.80
2022-10-13T10:32:40.858Z,90.90
2022-10-13T10:35:16.765Z,90.90
2022-10-13T10:38:06.270Z,90.60
2022-10-13T10:41:11.511Z,90.60
2022-10-13T10:43:41.153Z,91.00
2022-10-13T10:46:20.071Z,91.60
2022-10-13T10:48:50.258Z,92.00
2022-10-13T10:51:18.076Z,92.00
2022-10-13T10:53:57.808Z,92.20
2022-10-13T10:56:40.654Z,92.40
2022-10-13T10:59:41.574Z,92.20
2022-10-13T11:02:08.303Z,92.30
2022-10-13T11:04:40.796Z,92.50
2022-10-13T11:07:30.748Z,92.60
2022-10-13T11:09:57.467Z,92.70
2022-10-13T11:12:26.217Z,93.00
2022-10-13T11:15:16.043Z,92.90
2022-10-13T11:17:43.000Z,93.50
2022-10-13T11:20:21.552Z,93.30
2022-10-13T11:23:00.618Z,92.90
2022-10-13T11:25:49.287Z,92.90
2022-10-13T11:28:22.475Z,92.70
2022-10-13T11:31:33.543Z,92.80
2022-10-13T11:34:03.565Z,93.00
2022-10-13T11:36:31.633Z,93.30
2022-10-13T11:39:20.087Z,93.00
2022-10-13T11:42:02.486Z,93.00
2022-10-13T11:44:50.832Z,93.00
2022-10-13T11:47:55.488Z,93.00
2022-10-13T11:50:41.109Z,93.00
2022-10-13T11:53:24.332Z,93.20
2022-10-13T11:55:56.145Z,93.10
2022-10-13T11:58:25.505Z,93.10
2022-10-13T12:01:00.752Z,93.20
2022-10-13T12:03:58.162Z,93.30
2022-10-13T12:06:36.882Z,93.50
2022-10-13T12:09:24.362Z,93.40
2022-10-13T12:12:19.255Z,93.30
2022-10-13T12:14:52.624Z,93.60
2022-10-13T12:17:23.743Z,93.70
2022-10-13T12:19:51.521Z,93.70
2022-10-13T12:22:18.232Z,93.80
2022-10-13T12:25:00.871Z,93.80
2022-10-13T12:27:35.332Z,93.70
2022-10-13T12:30:19.515Z,93.90
2022-10-13T12:32:50.450Z,93.90
2022-10-13T12:35:28.124Z,93.90
2022-10-13T12:37:56.381Z,93.90
2022-10-13T12:40:24.451Z,94.20
2022-10-13T12:42:51.836Z,94.20
2022-10-13T12:45:24.521Z,94.10
2022-10-13T12:47:53.378Z,94.10
2022-10-13T12:50:23.798Z,93.90
2022-10-13T12:52:52.757Z,94.10
2022-10-13T12:55:21.735Z,93.80
2022-10-13T12:57:50.991Z,94.00
2022-10-13T13:00:21.039Z,94.20
2022-10-13T13:02:52.348Z,94.30
2022-10-13T13:05:32.884Z,94.40
2022-10-13T13:08:00.653Z,94.00
2022-10-13T13:10:27.911Z,94.20
2022-10-13T13:12:56.189Z,94.30
2022-10-13T13:15:25.546Z,94.30
2022-10-13T13:17:59.352Z,94.70
2022-10-13T13:20:29.854Z,95.20
2022-10-13T13:22:56.780Z,94.80
2022-10-13T13:25:24.510Z,94.70
2022-10-13T13:27:52.015Z,94.60
2022-10-13T13:30:23.145Z,94.50
2022-10-13T13:32:50.156Z,94.40
2022-10-13T13:35:17.856Z,94.00
2022-10-13T13:37:49.674Z,93.70
2022-10-13T13:40:22.182Z,93.60
2022-10-13T13:42:49.237Z,93.50
2022-10-13T13:45:18.195Z,93.50
2022-10-13T13:47:45.281Z,93.30
2022-10-13T13:50:24.426Z,93.30
2022-10-13T13:52:51.569Z,93.20
2022-10-13T13:55:18.762Z,93.20
2022-10-13T13:57:45.524Z,93.10
2022-10-13T14:00:14.489Z,93.00
2022-10-13T14:02:42.877Z,93.00
2022-10-13T14:05:12.746Z,92.90
2022-10-13T14:07:40.539Z,92.90
2022-10-13T14:10:09.308Z,92.80
2022-10-13T14:12:36.604Z,92.70
2022-10-13T14:15:03.792Z,92.70
2022-10-13T14:17:30.578Z,92.70
2022-10-13T14:19:57.356Z,92.60
2022-10-13T14:22:24.429Z,92.60
2022-10-13T14:24:51.448Z,92.50
2022-10-13T14:27:18.184Z,92.50
2022-10-13T14:29:44.958Z,92.50
2022-10-13T14:32:12.046Z,92.40
2022-10-13T14:34:38.935Z,92.30
2022-10-13T14:37:05.714Z,92.30
2022-10-13T14:39:32.467Z,92.30
2022-10-13T14:41:59.199Z,92.20
2022-10-13T14:44:25.970Z,92.20
2022-10-13T14:46:52.769Z,92.20
2022-10-13T14:49:19.473Z,92.20
2022-10-13T14:51:46.273Z,92.10
2022-10-13T14:54:13.279Z,92.10
2022-10-13T14:56:40.509Z,92.10
2022-10-13T14:59:07.897Z,92.10
2022-10-13T15:01:34.807Z,92.00
2022-10-13T15:04:02.596Z,92.00
2022-10-13T15:06:29.588Z,92.20
2022-10-13T15:08:57.104Z,91.90
2022-10-13T15:11:25.209Z,91.90
2022-10-13T15:13:52.367Z,91.90
2022-10-13T15:16:29.191Z,91.90
2022-10-13T15:18:57.202Z,92.10
2022-10-13T15:21:24.525Z,91.80
2022-10-13T15:23:51.513Z,91.80
2022-10-13T15:26:19.899Z,91.80
2022-10-13T15:28:52.759Z,91.80
2022-10-13T15:31:21.368Z,91.80
2022-10-13T15:33:51.803Z,91.70
2022-10-13T15:36:19.657Z,91.70
2022-10-13T15:38:46.621Z,91.70
2022-10-13T15:41:13.380Z,91.70
2022-10-13T15:43:40.214Z,91.70
2022-10-13T15:46:11.662Z,91.70
2022-10-13T15:48:39.370Z,91.60
2022-10-13T15:51:14.204Z,91.60
2022-10-13T15:53:40.986Z,91.60
2022-10-13T15:56:08.473Z,91.60
2022-10-13T15:58:38.786Z,91.60
2022-10-13T16:01:10.606Z,91.60
2022-10-13T16:03:37.831Z,91.50
2022-10-13T16:06:06.780Z,91.50
2022-10-13T16:08:40.630Z,91.50
2022-10-13T16:11:09.513Z,91.50
2022-10-13T16:13:36.368Z,91.50
2022-10-13T16:16:05.966Z,91.50
2022-10-13T16:18:37.371Z,91.50
2022-10-13T16:21:18.474Z,91.40
2022-10-13T16:23:46.939Z,91.40
2022-10-13T16:26:14.715Z,91.40
2022-10-13T16:28:41.578Z,91.40
2022-10-13T16:31:13.327Z,91.40
2022-10-13T16:33:41.598Z,91.40
2022-10-13T16:36:10.075Z,91.30
2022-10-13T16:38:37.097Z,91.30
2022-10-13T16:41:09.904Z,91.30
2022-10-13T16:43:36.644Z,91.30
2022-10-13T16:46:05.368Z,91.30
2022-10-13T16:48:33.317Z,91.30
2022-10-13T16:51:04.395Z,91.30
2022-10-13T16:53:31.187Z,91.30
2022-10-13T16:55:57.910Z,91.20
2022-10-13T16:58:24.843Z,91.20
2022-10-13T17:00:51.576Z,91.20
2022-10-13T17:03:18.395Z,91.20
2022-10-13T17:05:45.107Z,91.20
2022-10-13T17:08:11.833Z,91.20
2022-10-13T17:10:38.568Z,91.20
2022-10-13T17:13:05.330Z,91.10
2022-10-13T17:15:32.052Z,91.10
2022-10-13T17:17:58.831Z,91.10
2022-10-13T17:20:25.541Z,91.20
2022-10-13T17:22:52.288Z,91.10
2022-10-13T17:25:18.995Z,91.10
2022-10-13T17:27:45.806Z,91.10
2022-10-13T17:30:12.588Z,91.10
2022-10-13T17:32:42.198Z,91.10
2022-10-13T17:35:14.343Z,91.10
2022-10-13T17:37:41.063Z,91.00
2022-10-13T17:40:08.221Z,91.00
2022-10-13T17:42:34.978Z,91.10
2022-10-13T17:45:01.829Z,91.10
2022-10-13T17:47:31.135Z,91.00
2022-10-13T17:50:00.111Z,91.00
2022-10-13T17:52:26.956Z,91.00
2022-10-13T17:54:53.733Z,91.00
2022-10-13T17:57:20.697Z,91.00
2022-10-13T17:59:47.729Z,91.20
2022-10-13T18:02:14.545Z,91.00
2022-10-13T18:04:41.704Z,91.00
2022-10-13T18:07:08.450Z,90.90
2022-10-13T18:09:35.215Z,90.90
2022-10-13T18:12:01.945Z,90.90
2022-10-13T18:14:29.134Z,90.90
2022-10-13T18:16:56.400Z,90.90
2022-10-13T18:19:25.575Z,90.90
2022-10-13T18:21:53.063Z,90.90
2022-10-13T18:24:20.252Z,90.90
2022-10-13T18:26:47.489Z,90.90
2022-10-13T18:29:14.838Z,90.90
2022-10-13T18:31:42.972Z,90.90
2022-10-13T18:34:14.025Z,90.90
2022-10-13T18:36:47.296Z,90.90
2022-10-13T18:39:17.698Z,90.90
2022-10-13T18:41:45.136Z,90.90
2022-10-13T18:44:12.610Z,90.90
2022-10-13T18:46:40.197Z,90.90
2022-10-13T18:49:13.514Z,90.90
2022-10-13T18:51:41.176Z,90.90
2022-10-13T18:54:08.924Z,90.90
2022-10-13T18:56:37.038Z,90.80
2022-10-13T18:59:04.615Z,90.80
2022-10-13T19:01:36.494Z,90.80
2022-10-13T19:04:04.251Z,90.80
2022-10-13T19:06:32.459Z,90.80
2022-10-13T19:09:03.721Z,90.80
2022-10-13T19:11:31.895Z,90.80
2022-10-13T19:13:59.876Z,90.80
2022-10-13T19:16:29.245Z,90.80
2022-10-13T19:18:56.379Z,90.80
2022-10-13T19:21:23.683Z,90.80
2022-10-13T19:23:50.462Z,90.80
2022-10-13T19:26:26.730Z,90.80
2022-10-13T19:28:55.515Z,90.80
2022-10-13T19:31:26.318Z,90.80
2022-10-13T19:33:54.112Z,90.80
2022-10-13T19:36:25.227Z,90.80
2022-10-13T19:38:52.180Z,90.80
2022-10-13T19:41:21.829Z,90.80
2022-10-13T19:43:49.024Z,90.70
2022-10-13T19:46:19.152Z,90.80
2022-10-13T19:48:46.015Z,90.80
2022-10-13T19:51:12.934Z,90.80
2022-10-13T19:53:40.134Z,90.70
2022-10-13T19:56:07.817Z,90.80
2022-10-13T19:58:35.476Z,90.80
2022-10-13T20:01:06.853Z,90.70
2022-10-13T20:03:33.750Z,90.80
2022-10-13T20:06:04.265Z,90.70
2022-10-13T20:08:30.992Z,90.70
2022-10-13T20:10:57.849Z,90.80
2022-10-13T20:13:24.619Z,90.80
2022-10-13T20:15:51.373Z,90.70
2022-10-13T20:18:18.231Z,90.70
2022-10-13T20:20:44.964Z,90.70
2022-10-13T20:23:11.877Z,90.70
2022-10-13T20:25:40.849Z,91.00
2022-10-13T20:28:07.627Z,90.70
2022-10-13T20:30:34.384Z,90.80
2022-10-13T20:33:01.148Z,90.70
2022-10-13T20:35:27.902Z,90.70
2022-10-13T20:37:54.646Z,90.70
2022-10-13T20:40:21.532Z,90.70
2022-10-13T20:42:52.381Z,90.70
2022-10-13T20:45:19.224Z,90.70
2022-10-13T20:47:46.926Z,90.70
2022-10-13T20:50:13.960Z,90.70
2022-10-13T20:52:40.729Z,90.70
2022-10-13T20:55:07.771Z,90.70
2022-10-13T20:57:34.972Z,90.70
2022-10-13T21:00:01.875Z,90.70
2022-10-13T21:02:28.584Z,90.70
2022-10-13T21:04:55.339Z,90.70
2022-10-13T21:07:22.945Z,90.70
2022-10-13T21:09:53.681Z,90.70
2022-10-13T21:12:21.525Z,90.70
2022-10-13T21:14:48.868Z,90.70
2022-10-13T21:17:15.573Z,90.70
2022-10-13T21:19:42.310Z,90.70
2022-10-13T21:22:09.028Z,90.70
2022-10-13T21:24:35.790Z,90.70
2022-10-13T21:27:02.515Z,90.70
2022-10-13T21:29:30.385Z,90.70
2022-10-13T21:31:57.084Z,90.70
2022-10-13T21:34:23.868Z,90.80
2022-10-13T21:36:50.616Z,90.70
2022-10-13T21:39:17.424Z,90.90
2022-10-13T21:41:44.241Z,90.70
2022-10-13T21:44:14.288Z,90.70
2022-10-13T21:46:43.627Z,90.70
2022-10-13T21:49:10.360Z,90.70
2022-10-13T21:51:39.087Z,90.70
2022-10-13T21:54:12.046Z,90.70
2022-10-13T21:56:42.033Z,90.70
2022-10-13T21:59:11.201Z,90.70
2022-10-13T22:01:37.995Z,90.70
2022-10-13T22:04:06.256Z,90.70
2022-10-13T22:06:33.614Z,90.70
2022-10-13T22:09:02.206Z,90.70
2022-10-13T22:11:31.394Z,90.70
2022-10-13T22:13:58.579Z,90.70
2022-10-13T22:16:32.083Z,90.70
2022-10-13T22:18:59.217Z,90.70
2022-10-13T22:21:35.315Z,90.70
2022-10-13T22:24:04.339Z,90.70
2022-10-13T22:26:34.201Z,90.70
2022-10-13T22:29:02.584Z,90.70
2022-10-13T22:31:30.631Z,90.70
2022-10-13T22:33:57.965Z,90.70
2022-10-13T22:36:26.150Z,90.70
2022-10-13T22:38:55.770Z,90.70
2022-10-13T22:41:23.016Z,90.70
2022-10-13T22:43:51.662Z,90.70
2022-10-13T22:46:22.533Z,90.70
2022-10-13T22:48:49.446Z,90.70
2022-10-13T22:51:20.326Z,90.70
2022-10-13T22:53:47.488Z,90.70
2022-10-13T22:56:20.710Z,90.70
2022-10-13T22:59:06.103Z,90.70
2022-10-13T23:01:33.333Z,90.70
2022-10-13T23:04:00.632Z,90.70
2022-10-13T23:06:29.783Z,90.70
2022-10-13T23:08:59.697Z,90.70
2022-10-13T23:11:26.733Z,90.70
2022-10-13T23:13:53.621Z,90.70
2022-10-13T23:16:23.207Z,90.70
2022-10-13T23:18:49.989Z,90.70
2022-10-13T23:21:19.074Z,90.70
2022-10-13T23:23:46.590Z,90.70
2022-10-13T23:26:16.627Z,90.70
2022-10-13T23:28:43.950Z,90.70
2022-10-13T23:31:13.675Z,90.70
2022-10-13T23:33:40.700Z,90.70
2022-10-13T23:36:08.325Z,90.70
2022-10-13T23:38:35.203Z,90.70
2022-10-13T23:41:04.013Z,90.70
2022-10-13T23:43:30.830Z,90.70
2022-10-13T23:45:57.709Z,90.70
2022-10-13T23:48:24.490Z,90.70
2022-10-13T23:50:51.274Z,90.70
2022-10-13T23:53:18.613Z,90.70
2022-10-13T23:55:45.357Z,90.70
2022-10-13T23:58:13.580Z,90.70
